createdAt,value
2018-03-07T00:01:52.987Z,3.30
2018-03-07T00:04:21.326Z,3.40
2018-03-07T00:06:49.673Z,3.40
2018-03-07T00:09:18.040Z,3.40
2018-03-07T00:11:47.198Z,3.40
2018-03-07T00:14:15.565Z,3.40
2018-03-07T00:16:43.934Z,3.40
2018-03-07T00:19:12.244Z,3.30
2018-03-07T00:21:40.556Z,3.30
2018-03-07T00:24:08.916Z,3.20
2018-03-07T00:26:37.983Z,3.20
2018-03-07T00:29:06.287Z,3.10
2018-03-07T00:31:35.358Z,3.20
2018-03-07T00:34:03.669Z,3.10
2018-03-07T00:36:32.012Z,3.30
2018-03-07T00:39:00.361Z,3.40
2018-03-07T00:41:28.664Z,3.50
2018-03-07T00:43:57.744Z,3.50
2018-03-07T00:46:26.152Z,3.50
2018-03-07T00:48:54.539Z,3.50
2018-03-07T00:51:22.916Z,3.60
2018-03-07T00:53:51.276Z,3.60
2018-03-07T00:56:19.637Z,3.60
2018-03-07T00:58:48.335Z,3.70
2018-03-07T01:01:17.448Z,3.70
2018-03-07T01:03:45.914Z,3.70
2018-03-07T01:06:14.236Z,3.70
2018-03-07T01:08:42.594Z,3.70
2018-03-07T01:11:10.946Z,3.80
2018-03-07T01:13:39.267Z,3.80
2018-03-07T01:16:07.574Z,3.70
2018-03-07T01:18:35.889Z,3.70
2018-03-07T01:21:04.995Z,3.70
2018-03-07T01:23:34.071Z,3.60
2018-03-07T01:26:02.394Z,3.60
2018-03-07T01:28:31.496Z,3.50
2018-03-07T01:31:00.584Z,3.40
2018-03-07T01:33:29.017Z,3.30
2018-03-07T01:35:57.399Z,3.40
2018-03-07T01:38:26.472Z,3.40
2018-03-07T01:40:54.774Z,3.30
2018-03-07T01:43:23.095Z,3.20
2018-03-07T01:45:52.224Z,3.00
2018-03-07T01:48:20.639Z,3.00
2018-03-07T01:50:48.991Z,3.00
2018-03-07T01:53:17.348Z,3.00
2018-03-07T01:55:45.708Z,2.90
2018-03-07T01:58:14.019Z,2.80
2018-03-07T02:00:42.402Z,2.90
2018-03-07T02:03:10.803Z,3.00
2018-03-07T02:05:39.105Z,3.00
2018-03-07T02:08:07.483Z,3.00
2018-03-07T02:10:35.755Z,3.10
2018-03-07T02:13:04.065Z,3.20
2018-03-07T02:15:32.372Z,3.20
2018-03-07T02:18:01.533Z,3.30
2018-03-07T02:20:29.835Z,3.20
2018-03-07T02:22:58.234Z,3.30
2018-03-07T02:25:26.557Z,3.30
2018-03-07T02:27:55.653Z,3.30
2018-03-07T02:30:24.058Z,3.30
2018-03-07T02:32:53.176Z,3.40
2018-03-07T02:35:21.559Z,3.40
2018-03-07T02:37:50.692Z,3.40
2018-03-07T02:40:19.034Z,3.40
2018-03-07T02:42:47.473Z,3.40
2018-03-07T02:45:15.946Z,3.40
2018-03-07T02:47:44.246Z,3.40
2018-03-07T02:50:12.560Z,3.40
2018-03-07T02:52:40.880Z,3.40
2018-03-07T02:55:09.265Z,3.40
2018-03-07T02:57:37.574Z,3.40
2018-03-07T03:00:05.887Z,3.40
2018-03-07T03:02:34.964Z,3.40
2018-03-07T03:05:03.277Z,3.40
2018-03-07T03:07:31.664Z,3.40
2018-03-07T03:09:59.991Z,3.50
2018-03-07T03:12:29.078Z,3.50
2018-03-07T03:14:58.173Z,3.50
2018-03-07T03:17:26.487Z,3.50
2018-03-07T03:19:55.653Z,3.50
2018-03-07T03:22:24.002Z,3.50
2018-03-07T03:24:53.139Z,3.50
2018-03-07T03:27:21.478Z,3.50
2018-03-07T03:29:50.575Z,3.50
2018-03-07T03:32:19.769Z,3.50
2018-03-07T03:34:48.202Z,3.50
2018-03-07T03:37:17.343Z,3.40
2018-03-07T03:39:45.670Z,3.40
2018-03-07T03:42:13.999Z,3.40
2018-03-07T03:44:42.385Z,3.40
2018-03-07T03:47:11.478Z,3.40
2018-03-07T03:49:40.542Z,3.50
2018-03-07T03:52:08.849Z,3.40
2018-03-07T03:54:37.953Z,3.50
2018-03-07T03:57:06.279Z,3.40
2018-03-07T03:59:35.367Z,3.40
2018-03-07T04:02:03.671Z,3.40
2018-03-07T04:04:31.972Z,3.50
2018-03-07T04:07:01.110Z,3.40
2018-03-07T04:09:29.401Z,3.40
2018-03-07T04:11:57.734Z,3.40
2018-03-07T04:14:26.065Z,3.40
2018-03-07T04:16:55.123Z,3.30
2018-03-07T04:19:23.560Z,3.30
2018-03-07T04:21:52.658Z,3.40
2018-03-07T04:24:21.799Z,3.40
2018-03-07T04:26:50.175Z,3.40
2018-03-07T04:29:19.300Z,3.40
2018-03-07T04:31:47.742Z,3.40
2018-03-07T04:34:16.097Z,3.40
2018-03-07T04:36:44.444Z,3.30
2018-03-07T04:39:12.762Z,3.30
2018-03-07T04:41:41.183Z,3.30
2018-03-07T04:44:09.486Z,3.30
2018-03-07T04:46:37.782Z,3.20
2018-03-07T04:49:06.199Z,3.30
2018-03-07T04:51:35.327Z,3.20
2018-03-07T04:54:04.528Z,3.20
2018-03-07T04:56:33.597Z,3.30
2018-03-07T04:59:01.936Z,3.30
2018-03-07T05:01:30.353Z,3.30
2018-03-07T05:03:58.692Z,3.30
2018-03-07T05:06:26.995Z,3.30
2018-03-07T05:08:55.304Z,3.30
2018-03-07T05:11:23.668Z,3.40
2018-03-07T05:13:52.972Z,3.30
2018-03-07T05:16:21.422Z,3.30
2018-03-07T05:18:49.851Z,3.30
2018-03-07T05:21:18.172Z,3.20
2018-03-07T05:23:47.256Z,3.10
2018-03-07T05:26:15.681Z,3.10
2018-03-07T05:28:43.978Z,3.10
2018-03-07T05:31:12.301Z,3.30
2018-03-07T05:33:40.634Z,3.20
2018-03-07T05:36:08.949Z,3.20
2018-03-07T05:38:37.361Z,3.30
2018-03-07T05:41:05.683Z,3.30
2018-03-07T05:43:34.022Z,3.30
2018-03-07T05:46:03.110Z,3.20
2018-03-07T05:48:32.572Z,3.20
2018-03-07T05:51:01.001Z,3.20
2018-03-07T05:53:29.294Z,3.20
2018-03-07T05:55:57.634Z,3.10
2018-03-07T05:58:25.940Z,3.10
2018-03-07T06:00:54.276Z,3.10
2018-03-07T06:03:22.763Z,3.10
2018-03-07T06:05:51.090Z,3.10
2018-03-07T06:08:19.471Z,3.10
2018-03-07T06:10:48.644Z,3.20
2018-03-07T06:13:17.019Z,3.20
2018-03-07T06:15:46.300Z,3.30
2018-03-07T06:18:14.646Z,3.20
2018-03-07T06:20:42.956Z,3.30
2018-03-07T06:23:11.269Z,3.30
2018-03-07T06:25:40.325Z,3.30
2018-03-07T06:28:08.716Z,3.30
2018-03-07T06:30:37.020Z,3.40
2018-03-07T06:33:05.438Z,3.40
2018-03-07T06:35:34.507Z,3.40
2018-03-07T06:38:02.815Z,3.40
2018-03-07T06:40:31.174Z,3.40
2018-03-07T06:42:59.490Z,3.40
2018-03-07T06:45:27.911Z,3.40
2018-03-07T06:47:56.987Z,3.40
2018-03-07T06:50:26.146Z,3.40
2018-03-07T06:52:54.570Z,3.40
2018-03-07T06:55:22.954Z,3.40
2018-03-07T06:57:51.373Z,3.40
2018-03-07T07:00:19.740Z,3.40
2018-03-07T07:02:48.226Z,3.40
2018-03-07T07:05:16.654Z,3.50
2018-03-07T07:07:45.838Z,3.50
2018-03-07T07:10:14.162Z,3.50
2018-03-07T07:12:43.355Z,3.50
2018-03-07T07:15:12.721Z,3.50
2018-03-07T07:17:41.175Z,3.50
2018-03-07T07:20:09.487Z,3.60
2018-03-07T07:22:37.792Z,3.60
2018-03-07T07:25:06.858Z,3.60
2018-03-07T07:27:35.422Z,3.60
2018-03-07T07:30:03.732Z,3.70
2018-03-07T07:32:32.116Z,3.70
2018-03-07T07:35:00.448Z,3.70
2018-03-07T07:37:28.806Z,3.80
2018-03-07T07:39:57.162Z,3.80
2018-03-07T07:42:26.265Z,3.80
2018-03-07T07:44:55.488Z,3.90
2018-03-07T07:47:23.967Z,3.90
2018-03-07T07:49:52.669Z,3.90
2018-03-07T07:52:21.808Z,4.00
2018-03-07T07:54:50.172Z,4.00
2018-03-07T07:57:19.365Z,4.10
2018-03-07T07:59:48.629Z,4.20
2018-03-07T08:02:17.075Z,4.20
2018-03-07T08:04:45.528Z,4.30
2018-03-07T08:07:14.761Z,4.40
2018-03-07T08:09:43.865Z,4.40
2018-03-07T08:12:12.166Z,4.40
2018-03-07T08:14:40.591Z,4.40
2018-03-07T08:17:08.895Z,4.30
2018-03-07T08:19:37.199Z,4.30
2018-03-07T08:22:05.587Z,4.30
2018-03-07T08:24:33.977Z,4.30
2018-03-07T08:27:02.269Z,4.20
2018-03-07T08:29:30.685Z,4.20
2018-03-07T08:31:58.994Z,4.30
2018-03-07T08:34:27.330Z,4.40
2018-03-07T08:36:56.102Z,4.40
2018-03-07T08:39:25.223Z,4.50
2018-03-07T08:41:53.688Z,4.50
2018-03-07T08:44:22.042Z,4.60
2018-03-07T08:46:50.451Z,4.70
2018-03-07T08:49:19.064Z,4.80
2018-03-07T08:51:47.445Z,4.90
2018-03-07T08:54:16.815Z,4.80
2018-03-07T08:56:45.237Z,4.80
2018-03-07T08:59:13.549Z,4.80
2018-03-07T09:01:42.793Z,4.90
2018-03-07T09:04:11.601Z,4.90
2018-03-07T09:06:40.721Z,5.10
2018-03-07T09:09:09.031Z,5.00
2018-03-07T09:11:37.355Z,5.20
2018-03-07T09:14:05.695Z,5.50
2018-03-07T09:16:33.981Z,5.60
2018-03-07T09:19:02.369Z,5.70
2018-03-07T09:21:31.443Z,6.00
2018-03-07T09:23:59.819Z,6.00
2018-03-07T09:26:28.144Z,6.00
2018-03-07T09:28:57.291Z,6.10
2018-03-07T09:31:25.662Z,6.00
2018-03-07T09:33:54.729Z,6.30
2018-03-07T09:36:23.144Z,6.30
2018-03-07T09:38:51.508Z,6.40
2018-03-07T09:41:20.676Z,6.50
2018-03-07T09:43:49.088Z,6.50
2018-03-07T09:46:17.585Z,6.90
2018-03-07T09:48:46.298Z,7.00
2018-03-07T09:51:14.703Z,6.90
2018-03-07T09:53:44.005Z,6.90
2018-03-07T09:56:12.466Z,6.80
2018-03-07T09:58:40.836Z,6.90
2018-03-07T10:01:09.979Z,6.90
2018-03-07T10:03:38.279Z,6.90
2018-03-07T10:06:06.583Z,6.90
2018-03-07T10:08:34.886Z,7.00
2018-03-07T10:11:03.278Z,6.90
2018-03-07T10:13:31.621Z,7.00
2018-03-07T10:15:59.967Z,7.40
2018-03-07T10:18:29.075Z,7.60
2018-03-07T10:20:57.497Z,7.50
2018-03-07T10:23:26.639Z,7.70
2018-03-07T10:25:55.057Z,7.70
2018-03-07T10:28:23.767Z,7.70
2018-03-07T10:30:52.279Z,7.50
2018-03-07T10:33:26.644Z,7.20
2018-03-07T10:35:55.107Z,6.90
2018-03-07T10:38:23.501Z,6.70
2018-03-07T10:40:52.676Z,6.70
2018-03-07T10:43:21.094Z,6.60
2018-03-07T10:45:49.523Z,6.80
2018-03-07T10:48:18.129Z,7.00
2018-03-07T10:50:46.688Z,7.20
2018-03-07T10:53:15.202Z,7.30
2018-03-07T10:55:43.542Z,7.60
2018-03-07T10:58:12.684Z,8.10
2018-03-07T11:00:41.780Z,8.30
2018-03-07T11:03:10.120Z,8.30
2018-03-07T11:05:38.477Z,8.20
2018-03-07T11:08:07.671Z,7.90
2018-03-07T11:10:35.995Z,7.90
2018-03-07T11:13:04.323Z,8.10
2018-03-07T11:15:32.666Z,8.30
2018-03-07T11:18:01.023Z,8.30
2018-03-07T11:20:29.380Z,8.00
2018-03-07T11:22:57.697Z,7.90
2018-03-07T11:25:26.231Z,7.80
2018-03-07T11:27:55.355Z,8.10
2018-03-07T11:30:23.755Z,8.10
2018-03-07T11:32:52.231Z,8.50
2018-03-07T11:35:20.742Z,8.80
2018-03-07T11:37:49.253Z,9.00
2018-03-07T11:40:18.617Z,9.00
2018-03-07T11:42:47.049Z,9.00
2018-03-07T11:45:15.520Z,8.80
2018-03-07T11:47:43.903Z,8.40
2018-03-07T11:50:13.084Z,7.50
2018-03-07T11:52:41.409Z,7.50
2018-03-07T11:55:10.505Z,6.80
2018-03-07T11:57:38.931Z,6.80
2018-03-07T12:00:07.258Z,6.70
2018-03-07T12:02:35.655Z,6.70
2018-03-07T12:05:03.980Z,6.60
2018-03-07T12:07:33.091Z,6.90
2018-03-07T12:10:02.204Z,7.20
2018-03-07T12:12:31.382Z,7.40
2018-03-07T12:14:59.746Z,7.40
2018-03-07T12:17:28.178Z,7.50
2018-03-07T12:19:56.704Z,7.40
2018-03-07T12:22:25.202Z,7.50
2018-03-07T12:24:53.655Z,7.80
2018-03-07T12:27:22.210Z,8.00
2018-03-07T12:29:51.482Z,7.80
2018-03-07T12:32:20.033Z,7.80
2018-03-07T12:34:48.558Z,7.80
2018-03-07T12:37:17.856Z,7.70
2018-03-07T12:39:46.358Z,7.70
2018-03-07T12:42:14.892Z,7.70
2018-03-07T12:44:43.349Z,7.60
2018-03-07T12:47:12.483Z,7.60
2018-03-07T12:49:41.602Z,7.70
2018-03-07T12:52:10.693Z,7.70
2018-03-07T12:54:39.037Z,7.70
2018-03-07T12:57:07.373Z,7.60
2018-03-07T12:59:35.722Z,7.40
2018-03-07T13:02:04.157Z,7.00
2018-03-07T13:04:32.569Z,6.80
2018-03-07T13:07:01.669Z,6.70
2018-03-07T13:09:30.852Z,6.90
2018-03-07T13:11:59.203Z,6.90
2018-03-07T13:14:27.608Z,7.20
2018-03-07T13:16:56.024Z,7.40
2018-03-07T13:19:24.463Z,7.40
2018-03-07T13:21:52.913Z,7.40
2018-03-07T13:24:21.410Z,7.10
2018-03-07T13:26:50.677Z,6.50
2018-03-07T13:29:19.230Z,6.50
2018-03-07T13:31:48.509Z,6.20
2018-03-07T13:34:17.017Z,6.20
2018-03-07T13:36:46.344Z,7.40
2018-03-07T13:39:15.683Z,7.40
2018-03-07T13:41:44.100Z,7.50
2018-03-07T13:44:12.557Z,7.60
2018-03-07T13:46:40.895Z,7.60
2018-03-07T13:49:09.230Z,7.50
2018-03-07T13:51:37.537Z,7.20
2018-03-07T13:54:05.884Z,7.20
2018-03-07T13:56:34.271Z,7.00
2018-03-07T13:59:02.600Z,7.00
2018-03-07T14:01:30.922Z,6.90
2018-03-07T14:04:00.047Z,6.70
2018-03-07T14:06:28.468Z,6.60
2018-03-07T14:08:57.067Z,6.50
2018-03-07T14:11:25.599Z,6.50
2018-03-07T14:13:54.193Z,6.70
2018-03-07T14:16:22.674Z,6.60
2018-03-07T14:18:51.078Z,6.40
2018-03-07T14:21:19.594Z,6.30
2018-03-07T14:23:48.054Z,6.20
2018-03-07T14:26:17.452Z,5.90
2018-03-07T14:28:46.099Z,5.90
2018-03-07T14:31:15.039Z,5.80
2018-03-07T14:33:43.622Z,5.80
2018-03-07T14:36:11.949Z,5.80
2018-03-07T14:38:40.300Z,5.80
2018-03-07T14:41:08.628Z,5.70
2018-03-07T14:43:36.974Z,5.70
2018-03-07T14:46:05.375Z,5.60
2018-03-07T14:48:33.706Z,5.60
2018-03-07T14:51:02.057Z,5.60
2018-03-07T14:53:30.415Z,5.60
2018-03-07T14:55:59.539Z,5.60
2018-03-07T14:58:29.566Z,5.70
2018-03-07T15:00:58.673Z,5.70
2018-03-07T15:03:27.762Z,5.60
2018-03-07T15:05:56.116Z,5.60
2018-03-07T15:08:24.430Z,5.50
2018-03-07T15:10:52.835Z,5.40
2018-03-07T15:13:21.200Z,5.40
2018-03-07T15:15:49.576Z,5.30
2018-03-07T15:18:18.055Z,5.30
2018-03-07T15:20:46.560Z,5.20
2018-03-07T15:23:14.960Z,5.30
2018-03-07T15:25:43.412Z,5.30
2018-03-07T15:28:12.519Z,5.30
2018-03-07T15:30:40.845Z,5.30
2018-03-07T15:33:09.191Z,5.30
2018-03-07T15:35:38.424Z,5.40
2018-03-07T15:38:07.534Z,5.40
2018-03-07T15:40:36.625Z,5.30
2018-03-07T15:43:05.039Z,5.30
2018-03-07T15:45:34.136Z,5.30
2018-03-07T15:48:03.284Z,5.30
2018-03-07T15:50:31.678Z,5.30
2018-03-07T15:53:00.023Z,5.20
2018-03-07T15:55:29.144Z,4.90
2018-03-07T15:57:58.282Z,4.90
2018-03-07T16:00:26.760Z,4.90
2018-03-07T16:02:55.182Z,4.80
2018-03-07T16:05:23.627Z,4.70
2018-03-07T16:07:52.100Z,4.70
2018-03-07T16:10:20.530Z,4.70
2018-03-07T16:12:49.467Z,4.70
2018-03-07T16:15:18.029Z,4.70
2018-03-07T16:17:46.682Z,4.70
2018-03-07T16:20:16.043Z,4.70
2018-03-07T16:22:45.108Z,4.70
2018-03-07T16:25:14.488Z,4.50
2018-03-07T16:27:42.950Z,4.50
2018-03-07T16:30:12.055Z,4.30
2018-03-07T16:32:41.179Z,4.30
2018-03-07T16:35:10.275Z,4.20
2018-03-07T16:37:39.516Z,4.10
2018-03-07T16:40:07.894Z,4.10
2018-03-07T16:42:36.242Z,4.10
2018-03-07T16:45:04.570Z,4.10
2018-03-07T16:47:33.669Z,4.00
2018-03-07T16:50:02.838Z,4.00
2018-03-07T16:52:31.147Z,4.00
2018-03-07T16:54:59.488Z,4.00
2018-03-07T16:57:27.822Z,4.00
2018-03-07T16:59:56.174Z,4.00
2018-03-07T17:02:24.552Z,3.90
2018-03-07T17:04:52.950Z,3.80
2018-03-07T17:07:22.160Z,3.70
2018-03-07T17:09:50.539Z,3.70
2018-03-07T17:12:18.988Z,3.70
2018-03-07T17:14:47.385Z,3.70
2018-03-07T17:17:15.768Z,3.70
2018-03-07T17:19:45.107Z,3.60
2018-03-07T17:22:14.264Z,3.60
2018-03-07T17:24:42.667Z,3.60
2018-03-07T17:27:10.999Z,3.60
2018-03-07T17:29:39.306Z,3.60
2018-03-07T17:32:08.401Z,3.50
2018-03-07T17:34:36.788Z,3.50
2018-03-07T17:37:05.112Z,3.50
2018-03-07T17:39:33.439Z,3.50
2018-03-07T17:42:01.763Z,3.40
2018-03-07T17:44:30.111Z,3.50
2018-03-07T17:46:58.423Z,3.40
2018-03-07T17:49:26.838Z,3.40
2018-03-07T17:51:55.161Z,3.40
2018-03-07T17:54:23.564Z,3.40
2018-03-07T17:56:52.016Z,3.30
2018-03-07T17:59:20.512Z,3.30
2018-03-07T18:01:49.758Z,3.30
2018-03-07T18:04:18.405Z,3.30
2018-03-07T18:06:47.034Z,3.20
2018-03-07T18:09:15.572Z,3.20
2018-03-07T18:11:43.932Z,3.20
2018-03-07T18:14:12.407Z,3.20
2018-03-07T18:16:41.501Z,3.20
2018-03-07T18:19:09.869Z,3.20
2018-03-07T18:21:38.226Z,3.10
2018-03-07T18:24:06.547Z,3.20
2018-03-07T18:26:34.866Z,3.20
2018-03-07T18:29:03.295Z,3.20
2018-03-07T18:31:31.680Z,3.20
2018-03-07T18:34:00.918Z,3.20
2018-03-07T18:36:29.242Z,3.20
2018-03-07T18:38:57.602Z,3.20
2018-03-07T18:41:25.926Z,3.20
2018-03-07T18:43:54.664Z,3.20
2018-03-07T18:46:23.104Z,3.20
2018-03-07T18:48:51.528Z,3.20
2018-03-07T18:51:19.946Z,3.30
2018-03-07T18:53:48.407Z,3.30
2018-03-07T18:56:16.906Z,3.30
2018-03-07T18:58:45.560Z,3.30
2018-03-07T19:01:14.016Z,3.20
2018-03-07T19:03:43.127Z,3.20
2018-03-07T19:06:12.235Z,3.10
2018-03-07T19:08:41.326Z,3.10
2018-03-07T19:11:09.662Z,3.10
2018-03-07T19:13:38.068Z,3.10
2018-03-07T19:16:06.489Z,3.10
2018-03-07T19:18:35.596Z,3.10
2018-03-07T19:21:03.994Z,3.10
2018-03-07T19:23:32.542Z,3.00
2018-03-07T19:26:01.250Z,3.00
2018-03-07T19:28:29.607Z,3.00
2018-03-07T19:30:58.724Z,2.90
2018-03-07T19:33:27.834Z,2.90
2018-03-07T19:35:56.964Z,2.90
2018-03-07T19:38:25.682Z,2.90
2018-03-07T19:40:54.064Z,2.90
2018-03-07T19:43:22.475Z,2.90
2018-03-07T19:45:50.927Z,2.90
2018-03-07T19:48:20.423Z,2.90
2018-03-07T19:50:49.026Z,2.90
2018-03-07T19:53:18.239Z,2.80
2018-03-07T19:55:47.374Z,2.80
2018-03-07T19:58:16.023Z,2.80
2018-03-07T20:00:45.551Z,2.80
2018-03-07T20:03:14.028Z,2.70
2018-03-07T20:05:43.139Z,2.80
2018-03-07T20:08:11.486Z,2.80
2018-03-07T20:10:39.815Z,2.90
2018-03-07T20:13:08.230Z,2.90
2018-03-07T20:15:36.545Z,2.80
2018-03-07T20:18:04.878Z,2.80
2018-03-07T20:20:33.227Z,2.80
2018-03-07T20:23:01.604Z,2.80
2018-03-07T20:25:30.710Z,2.80
2018-03-07T20:27:59.805Z,2.70
2018-03-07T20:30:28.149Z,2.70
2018-03-07T20:32:56.547Z,2.80
2018-03-07T20:35:25.039Z,2.80
2018-03-07T20:37:53.457Z,2.80
2018-03-07T20:40:21.851Z,2.80
2018-03-07T20:42:51.244Z,2.80
2018-03-07T20:45:19.580Z,2.80
2018-03-07T20:47:48.755Z,2.80
2018-03-07T20:50:17.191Z,2.80
2018-03-07T20:52:45.730Z,2.80
2018-03-07T20:55:14.996Z,2.80
2018-03-07T20:57:43.379Z,2.80
2018-03-07T21:00:12.134Z,2.80
2018-03-07T21:02:40.468Z,2.70
2018-03-07T21:05:08.863Z,2.80
2018-03-07T21:07:37.281Z,2.70
2018-03-07T21:10:06.384Z,2.60
2018-03-07T21:12:35.458Z,2.60
2018-03-07T21:15:03.846Z,2.50
2018-03-07T21:17:32.214Z,2.50
2018-03-07T21:20:00.535Z,2.50
2018-03-07T21:22:28.903Z,2.50
2018-03-07T21:24:57.218Z,2.40
2018-03-07T21:27:25.530Z,2.40
2018-03-07T21:29:54.667Z,2.40
2018-03-07T21:32:23.413Z,2.40
2018-03-07T21:34:51.860Z,2.40
2018-03-07T21:37:20.274Z,2.40
2018-03-07T21:39:48.751Z,2.30
2018-03-07T21:42:17.579Z,2.30
2018-03-07T21:44:45.967Z,2.30
2018-03-07T21:47:14.358Z,2.20
2018-03-07T21:49:42.686Z,2.20
2018-03-07T21:52:11.075Z,2.20
2018-03-07T21:54:39.450Z,2.10
2018-03-07T21:57:07.787Z,2.10
2018-03-07T21:59:36.113Z,2.00
2018-03-07T22:02:04.436Z,2.00
2018-03-07T22:04:32.768Z,2.00
2018-03-07T22:07:01.122Z,1.90
2018-03-07T22:09:29.443Z,1.90
2018-03-07T22:11:57.811Z,1.90
2018-03-07T22:14:26.125Z,1.90
2018-03-07T22:16:54.497Z,1.90
2018-03-07T22:19:23.724Z,1.80
2018-03-07T22:21:52.189Z,1.80
2018-03-07T22:24:20.562Z,1.80
2018-03-07T22:26:49.761Z,1.70
2018-03-07T22:29:18.294Z,1.70
2018-03-07T22:31:46.890Z,1.60
2018-03-07T22:34:15.400Z,1.60
2018-03-07T22:36:43.804Z,1.60
2018-03-07T22:39:12.202Z,1.60
2018-03-07T22:41:40.522Z,1.60
2018-03-07T22:44:08.860Z,1.60
2018-03-07T22:46:38.028Z,1.60
2018-03-07T22:49:06.398Z,1.50
2018-03-07T22:51:34.709Z,1.60
2018-03-07T22:54:03.402Z,1.60
2018-03-07T22:56:32.523Z,1.50
2018-03-07T22:59:00.841Z,1.50
2018-03-07T23:01:29.191Z,1.50
2018-03-07T23:03:57.511Z,1.50
2018-03-07T23:06:26.030Z,1.50
2018-03-07T23:08:55.101Z,1.50
2018-03-07T23:11:23.567Z,1.50
2018-03-07T23:13:51.907Z,1.50
2018-03-07T23:16:21.022Z,1.50
2018-03-07T23:18:50.282Z,1.50
2018-03-07T23:21:18.706Z,1.50
2018-03-07T23:23:47.068Z,1.50
2018-03-07T23:26:16.251Z,1.40
2018-03-07T23:28:44.613Z,1.40
2018-03-07T23:31:12.975Z,1.40
2018-03-07T23:33:41.294Z,1.40
2018-03-07T23:36:09.685Z,1.40
2018-03-07T23:38:38.010Z,1.40
2018-03-07T23:41:07.079Z,1.40
2018-03-07T23:43:35.413Z,1.40
2018-03-07T23:46:03.754Z,1.40
2018-03-07T23:48:32.918Z,1.40
2018-03-07T23:51:01.238Z,1.40
2018-03-07T23:53:29.552Z,1.40
2018-03-07T23:55:57.888Z,1.40
2018-03-07T23:58:26.210Z,1.40
